Time;durP1;ratioP1;P1;durP2;ratioP2;P2;SDS_P1;SDS_P2;PMS_P1;PMS_P2;Temp;Humidity;BMP_temperature;BMP_pressure;BME280_temperature;BME280_humidity;BME280_pressure;Samples;Min_cycle;Max_cycle;Signal;HPM_P1;HPM_P2
2023/01/26 00:00:54;;;;;;;137.05;53.17;;;0.60;66.80;;;;;;5091014;28;20374;-76
2023/01/26 00:03:20;;;;;;;136.60;52.67;;;0.70;65.90;;;;;;5092043;28;20378;-73
2023/01/26 00:05:45;;;;;;;141.20;54.17;;;0.80;64.50;;;;;;5091663;28;20823;-75
2023/01/26 00:08:11;;;;;;;132.70;52.47;;;0.80;62.90;;;;;;5093096;28;20870;-76
2023/01/26 00:10:38;;;;;;;138.07;54.90;;;0.80;62.70;;;;;;5091496;28;20379;-75
2023/01/26 00:13:05;;;;;;;137.82;54.10;;;0.70;64.90;;;;;;5091759;28;20385;-75
2023/01/26 00:15:32;;;;;;;153.82;58.22;;;0.70;64.30;;;;;;5091556;28;20630;-76
2023/01/26 00:17:59;;;;;;;140.18;54.30;;;0.50;66.40;;;;;;5091717;28;20382;-75
2023/01/26 00:20:25;;;;;;;150.02;56.90;;;0.40;70.00;;;;;;5091343;28;20381;-76
2023/01/26 00:22:51;;;;;;;156.50;57.78;;;0.30;72.40;;;;;;5073278;28;20374;-75
2023/01/26 00:25:16;;;;;;;148.77;56.88;;;0.40;74.40;;;;;;5091417;28;20712;-76
2023/01/26 00:27:42;;;;;;;145.87;55.60;;;0.40;74.40;;;;;;5091099;28;20946;-75
2023/01/26 00:30:08;;;;;;;155.63;57.53;;;0.50;74.30;;;;;;5090549;28;20859;-74
2023/01/26 00:32:35;;;;;;;144.80;55.22;;;0.50;74.10;;;;;;5091049;28;20382;-73
2023/01/26 00:35:01;;;;;;;146.50;54.92;;;0.50;73.80;;;;;;5090969;28;20382;-76
2023/01/26 00:37:26;;;;;;;135.57;53.13;;;0.50;74.30;;;;;;5091094;28;20459;-74
2023/01/26 00:39:52;;;;;;;147.13;55.70;;;0.60;74.00;;;;;;5091422;28;20790;-73
2023/01/26 00:42:17;;;;;;;143.10;56.03;;;0.70;72.70;;;;;;5091286;28;20378;-77
2023/01/26 00:44:43;;;;;;;140.57;53.57;;;0.80;71.30;;;;;;5091849;28;20415;-75
2023/01/26 00:47:11;;;;;;;141.27;54.47;;;0.80;69.70;;;;;;5072970;28;20378;-75
2023/01/26 00:49:36;;;;;;;138.85;55.03;;;0.70;71.60;;;;;;5090756;28;20469;-74
2023/01/26 00:52:03;;;;;;;145.47;56.00;;;0.70;71.40;;;;;;5090619;28;20478;-73
2023/01/26 00:54:29;;;;;;;143.50;55.40;;;0.80;71.30;;;;;;5091779;28;20757;-74
2023/01/26 00:56:55;;;;;;;137.45;52.65;;;0.80;71.20;;;;;;5092871;28;20406;-73
2023/01/26 00:59:21;;;;;;;136.48;53.65;;;0.80;72.70;;;;;;5091492;28;20558;-73
2023/01/26 01:01:47;;;;;;;135.05;53.20;;;0.80;72.70;;;;;;5091281;28;20375;-73
2023/01/26 01:04:13;;;;;;;140.30;53.92;;;0.90;73.80;;;;;;5095649;28;20374;-73
2023/01/26 01:06:39;;;;;;;129.38;52.80;;;1.00;67.40;;;;;;5107238;28;20386;-73
2023/01/26 01:09:04;;;;;;;130.02;52.40;;;0.90;68.30;;;;;;5105688;28;20747;-73
2023/01/26 01:11:58;;;;;;;139.55;53.50;;;0.80;69.30;;;;;;5094627;28;20386;-75
2023/01/26 01:14:23;;;;;;;134.43;50.60;;;0.90;70.70;;;;;;5098256;28;20451;-75
2023/01/26 01:16:49;;;;;;;134.10;51.43;;;0.90;70.00;;;;;;5097073;28;20397;-75
2023/01/26 01:19:17;;;;;;;128.23;50.35;;;0.90;70.30;;;;;;5076636;28;20386;-74
2023/01/26 01:21:43;;;;;;;133.65;51.97;;;1.00;69.60;;;;;;5093941;28;20450;-75
2023/01/26 01:24:10;;;;;;;131.57;50.35;;;1.00;67.10;;;;;;5094407;28;20389;-73
2023/01/26 01:26:36;;;;;;;131.55;51.70;;;1.00;67.40;;;;;;5094414;28;20436;-74
2023/01/26 01:29:01;;;;;;;129.48;49.83;;;0.90;68.00;;;;;;5093968;28;20386;-73
2023/01/26 01:31:28;;;;;;;134.18;51.38;;;0.90;67.90;;;;;;5093935;28;20424;-72
2023/01/26 01:33:54;;;;;;;129.52;51.15;;;0.90;68.50;;;;;;5094066;28;20466;-74
2023/01/26 01:36:20;;;;;;;133.13;51.67;;;0.90;68.90;;;;;;5094083;28;20428;-73
2023/01/26 01:38:46;;;;;;;138.75;51.38;;;0.90;69.50;;;;;;5093835;28;20382;-75
2023/01/26 01:41:14;;;;;;;137.07;52.90;;;1.00;70.00;;;;;;5093665;28;20374;-74
2023/01/26 01:43:39;;;;;;;129.55;50.40;;;0.90;70.80;;;;;;5094608;28;20758;-74
2023/01/26 01:46:11;;;;;;;135.95;52.40;;;0.90;71.70;;;;;;5094004;28;20382;-76
2023/01/26 01:48:52;;;;;;;135.90;52.20;;;1.00;71.10;;;;;;5093801;28;20457;-74
2023/01/26 01:51:49;;;;;;;135.80;51.92;;;1.00;72.00;;;;;;5094587;28;20455;-72
2023/01/26 01:54:20;;;;;;;128.30;49.88;;;1.10;71.10;;;;;;5092157;28;20889;-73
2023/01/26 01:56:50;;;;;;;128.10;51.13;;;1.20;70.10;;;;;;5093407;28;20431;-72
2023/01/26 01:59:21;;;;;;;127.65;49.78;;;1.10;71.00;;;;;;5093198;28;20511;-72
2023/01/26 02:01:48;;;;;;;140.10;51.08;;;1.10;71.60;;;;;;5093085;28;20842;-72
2023/01/26 02:04:14;;;;;;;138.15;54.17;;;1.00;71.90;;;;;;5092977;28;20386;-72
2023/01/26 02:06:50;;;;;;;140.13;52.70;;;1.00;72.00;;;;;;5092916;28;20393;-73
2023/01/26 02:12:06;;;;;;;133.40;52.08;;;1.10;72.90;;;;;;5094362;28;20381;-74
2023/01/26 02:14:32;;;;;;;142.70;53.03;;;1.00;74.10;;;;;;5094014;28;20734;-73
2023/01/26 02:16:58;;;;;;;141.20;52.53;;;1.00;74.80;;;;;;5093076;28;20420;-73
2023/01/26 02:19:38;;;;;;;141.00;53.17;;;1.00;76.20;;;;;;5093767;28;20574;-72
2023/01/26 02:22:12;;;;;;;140.63;53.65;;;1.00;76.20;;;;;;5092318;28;20386;-72
2023/01/26 02:24:39;;;;;;;132.93;52.15;;;1.00;76.50;;;;;;5092954;28;20866;-73
2023/01/26 02:27:05;;;;;;;144.23;55.13;;;0.90;76.20;;;;;;5092586;28;20386;-73
2023/01/26 02:29:30;;;;;;;140.18;53.38;;;0.90;77.50;;;;;;5092601;28;20867;-72
2023/01/26 02:31:56;;;;;;;134.68;50.70;;;1.00;77.10;;;;;;5092305;28;20389;-72
2023/01/26 02:34:24;;;;;;;147.68;54.05;;;0.90;77.20;;;;;;5092872;28;20389;-73
2023/01/26 02:36:59;;;;;;;138.00;51.92;;;0.90;78.00;;;;;;5074017;28;20397;-74
2023/01/26 02:39:44;;;;;;;140.88;53.38;;;1.00;78.50;;;;;;5092508;28;20382;-73
2023/01/26 02:44:54;;;;;;;141.77;52.00;;;1.00;78.40;;;;;;5092248;28;20424;-71
2023/01/26 02:47:20;;;;;;;143.03;51.60;;;1.00;78.60;;;;;;5092417;28;20882;-71
2023/01/26 02:49:45;;;;;;;147.60;53.30;;;1.20;77.70;;;;;;5092017;28;20966;-73
2023/01/26 02:52:11;;;;;;;134.45;51.70;;;1.20;76.60;;;;;;5092427;28;20386;-73
2023/01/26 02:57:21;;;;;;;150.68;53.58;;;1.20;74.90;;;;;;5092379;28;20409;-73
2023/01/26 02:59:46;;;;;;;139.43;51.72;;;1.10;75.50;;;;;;5091747;28;20378;-72
2023/01/26 03:02:12;;;;;;;140.02;51.83;;;1.10;78.20;;;;;;5092575;28;20743;-72
2023/01/26 03:04:37;;;;;;;143.00;55.50;;;1.00;77.70;;;;;;5092206;28;20385;-73
2023/01/26 03:07:03;;;;;;;139.30;51.33;;;1.10;77.00;;;;;;5092313;28;20420;-72
2023/01/26 03:09:28;;;;;;;131.37;50.23;;;1.10;77.70;;;;;;5092096;28;20770;-73
2023/01/26 03:11:54;;;;;;;140.60;51.22;;;1.00;78.60;;;;;;5091901;28;20468;-73
2023/01/26 03:14:20;;;;;;;137.10;50.65;;;1.20;79.00;;;;;;5091855;28;20390;-73
2023/01/26 03:16:45;;;;;;;133.15;49.83;;;1.30;75.40;;;;;;5091693;28;20401;-74
2023/01/26 03:27:27;;;;;;;132.38;50.35;;;1.10;76.70;;;;;;5091810;28;20498;-72
2023/01/26 03:29:54;;;;;;;134.38;49.30;;;1.20;75.80;;;;;;5091358;28;20435;-73
2023/01/26 03:32:19;;;;;;;129.13;47.92;;;1.10;76.20;;;;;;5091140;28;20393;-72
2023/01/26 03:34:45;;;;;;;130.07;49.27;;;1.10;77.10;;;;;;5090809;28;20378;-73
2023/01/26 03:37:11;;;;;;;136.50;50.07;;;1.00;78.40;;;;;;5091774;28;20404;-72
2023/01/26 03:56:22;;;;;;;125.20;48.45;;;1.10;78.70;;;;;;5091389;28;20408;-72
2023/01/26 03:58:56;;;;;;;131.00;47.45;;;1.10;77.20;;;;;;5090751;28;20798;-72
2023/01/26 04:01:27;;;;;;;131.07;47.92;;;1.10;77.70;;;;;;5091069;28;20370;-72
2023/01/26 04:09:26;;;;;;;131.25;48.35;;;1.20;77.60;;;;;;5090970;28;20381;-72
2023/01/26 04:11:52;;;;;;;130.35;49.03;;;1.20;79.00;;;;;;5090356;28;20382;-73
2023/01/26 04:22:39;;;;;;;126.25;48.97;;;1.80;68.60;;;;;;5090855;28;20381;-72
2023/01/26 04:25:09;;;;;;;130.23;48.85;;;1.70;69.50;;;;;;5090614;28;20874;-74
2023/01/26 04:27:35;;;;;;;129.05;49.47;;;1.60;70.20;;;;;;5090426;28;20393;-73
2023/01/26 04:30:02;;;;;;;124.03;47.15;;;1.50;71.30;;;;;;5090968;28;20390;-72
2023/01/26 04:32:29;;;;;;;135.48;48.65;;;1.50;72.70;;;;;;5090515;28;20389;-71
2023/01/26 04:34:54;;;;;;;136.95;48.80;;;1.50;73.10;;;;;;5090592;28;20921;-73
2023/01/26 04:37:20;;;;;;;137.80;51.10;;;1.50;73.90;;;;;;5090241;28;20504;-73
2023/01/26 04:39:45;;;;;;;134.07;49.10;;;1.50;73.80;;;;;;5090375;28;20755;-73
2023/01/26 04:42:11;;;;;;;143.88;49.38;;;1.40;74.40;;;;;;5090133;28;20378;-72
2023/01/26 04:44:36;;;;;;;139.50;50.57;;;1.40;74.20;;;;;;5090753;28;20382;-72
2023/01/26 04:47:02;;;;;;;135.73;49.00;;;1.50;75.20;;;;;;5094067;28;20409;-73
2023/01/26 04:49:27;;;;;;;139.33;49.23;;;1.50;75.30;;;;;;5094184;28;20920;-72
2023/01/26 04:51:53;;;;;;;136.83;49.47;;;1.30;79.00;;;;;;5094392;28;20436;-72
2023/01/26 04:54:19;;;;;;;136.77;49.28;;;1.40;77.40;;;;;;5094771;28;20799;-73
2023/01/26 04:56:44;;;;;;;134.20;49.15;;;1.30;78.40;;;;;;5094494;28;20891;-73
2023/01/26 04:59:10;;;;;;;135.20;48.28;;;1.40;80.30;;;;;;5094918;28;20411;-74
2023/01/26 05:01:36;;;;;;;131.82;48.72;;;1.60;76.60;;;;;;5095786;28;20465;-73
2023/01/26 05:04:03;;;;;;;142.43;50.50;;;1.50;76.60;;;;;;5094680;28;20886;-71
2023/01/26 05:06:29;;;;;;;131.43;47.50;;;1.50;80.20;;;;;;5094988;28;20572;-72
2023/01/26 05:08:55;;;;;;;137.55;47.72;;;1.50;78.50;;;;;;5095056;28;20792;-73
2023/01/26 05:11:21;;;;;;;135.90;47.60;;;1.30;81.40;;;;;;5093774;28;20429;-73
2023/01/26 05:13:46;;;;;;;133.83;47.60;;;1.30;85.30;;;;;;5094460;28;20382;-72
2023/01/26 05:16:13;;;;;;;133.50;48.30;;;1.50;80.50;;;;;;5094591;28;20401;-73
2023/01/26 05:18:42;;;;;;;121.82;46.03;;;1.60;78.40;;;;;;5093971;28;20378;-72
2023/01/26 05:21:09;;;;;;;128.13;45.90;;;1.60;77.40;;;;;;5093509;28;20465;-72
2023/01/26 05:23:34;;;;;;;120.78;43.75;;;1.40;80.20;;;;;;5094040;28;20507;-72
2023/01/26 05:26:00;;;;;;;125.80;46.60;;;1.40;81.70;;;;;;5094044;28;20450;-73
2023/01/26 05:28:26;;;;;;;123.90;46.00;;;1.30;85.30;;;;;;5093801;28;20386;-72
2023/01/26 05:30:51;;;;;;;117.00;43.08;;;1.30;87.80;;;;;;5093124;28;20453;-71
2023/01/26 05:33:20;;;;;;;125.68;45.75;;;1.50;82.30;;;;;;5093724;28;20458;-72
2023/01/26 05:35:55;;;;;;;118.53;45.25;;;1.50;80.30;;;;;;5093416;28;20381;-72
2023/01/26 05:38:21;;;;;;;121.15;44.35;;;1.40;79.80;;;;;;5093680;28;20368;-73
2023/01/26 05:40:46;;;;;;;129.20;46.27;;;1.40;81.70;;;;;;5093467;28;20461;-72
2023/01/26 05:43:12;;;;;;;120.35;45.45;;;1.40;83.00;;;;;;5093247;28;20378;-73
2023/01/26 05:45:39;;;;;;;122.38;46.35;;;1.40;81.80;;;;;;5093329;28;20454;-73
2023/01/26 05:48:04;;;;;;;111.80;43.07;;;1.40;82.60;;;;;;5093161;28;20389;-72
2023/01/26 05:50:30;;;;;;;123.07;45.33;;;1.40;79.70;;;;;;5093465;28;20393;-72
2023/01/26 05:52:56;;;;;;;120.30;43.27;;;1.30;81.40;;;;;;5093339;28;20470;-71
2023/01/26 05:55:21;;;;;;;118.93;43.63;;;1.40;83.00;;;;;;5093639;28;20385;-73
2023/01/26 05:57:47;;;;;;;114.07;43.80;;;1.40;80.80;;;;;;5092420;28;20447;-72
2023/01/26 06:00:13;;;;;;;117.15;44.20;;;1.30;81.80;;;;;;5075795;28;20465;-74
2023/01/26 06:02:39;;;;;;;115.20;42.73;;;1.30;83.40;;;;;;5093198;28;20378;-73
2023/01/26 06:05:05;;;;;;;114.72;42.88;;;1.40;82.50;;;;;;5094424;28;20442;-73
2023/01/26 06:07:31;;;;;;;111.68;41.50;;;1.40;82.30;;;;;;5094278;28;20390;-73
2023/01/26 06:09:57;;;;;;;112.85;41.78;;;1.30;83.10;;;;;;5078564;28;20397;-72
2023/01/26 06:12:22;;;;;;;105.60;40.20;;;1.30;83.70;;;;;;5096779;28;20447;-72
2023/01/26 06:14:48;;;;;;;113.53;44.50;;;1.20;84.70;;;;;;5095133;28;20394;-72
2023/01/26 06:17:15;;;;;;;120.13;44.53;;;1.10;87.40;;;;;;5077215;28;20492;-74
2023/01/26 06:19:40;;;;;;;124.13;47.63;;;1.10;89.20;;;;;;5097796;28;20401;-71
2023/01/26 06:22:10;;;;;;;130.18;45.40;;;1.10;92.60;;;;;;5094690;28;20886;-72
2023/01/26 06:24:36;;;;;;;118.97;44.28;;;1.10;94.30;;;;;;5093852;28;20382;-72
2023/01/26 06:27:02;;;;;;;121.28;44.28;;;1.20;90.10;;;;;;5092731;28;20720;-73
2023/01/26 06:29:28;;;;;;;130.35;46.55;;;1.20;88.90;;;;;;5092222;28;20439;-73
2023/01/26 06:31:54;;;;;;;113.95;44.58;;;1.20;89.70;;;;;;5092535;28;20459;-73
2023/01/26 06:34:20;;;;;;;115.35;44.30;;;1.20;90.00;;;;;;5093034;28;20433;-74
2023/01/26 06:36:46;;;;;;;110.75;42.08;;;1.20;88.80;;;;;;5092359;28;20398;-73
2023/01/26 06:39:12;;;;;;;107.25;42.05;;;1.30;90.00;;;;;;5092487;28;20386;-72
2023/01/26 06:41:38;;;;;;;98.38;40.20;;;1.10;91.30;;;;;;5092627;28;20724;-71
2023/01/26 06:44:04;;;;;;;103.90;41.33;;;1.20;90.70;;;;;;5093959;28;20389;-72
2023/01/26 06:46:30;;;;;;;97.32;38.85;;;1.30;85.40;;;;;;5093812;28;20393;-74
2023/01/26 06:48:55;;;;;;;99.25;40.03;;;1.30;83.70;;;;;;5092140;28;20801;-72
2023/01/26 06:51:40;;;;;;;93.60;38.13;;;1.30;85.40;;;;;;5092117;28;20485;-72
2023/01/26 06:54:08;;;;;;;93.43;37.83;;;1.40;83.70;;;;;;5094141;28;20378;-72
2023/01/26 06:56:34;;;;;;;90.07;38.28;;;1.50;82.70;;;;;;5093778;28;20500;-73
2023/01/26 06:58:59;;;;;;;78.90;35.03;;;1.40;81.50;;;;;;5093068;28;20406;-72
2023/01/26 07:01:26;;;;;;;93.30;36.77;;;1.30;81.20;;;;;;5092711;28;20385;-73
2023/01/26 07:03:53;;;;;;;82.97;34.43;;;1.30;82.80;;;;;;5092747;28;20408;-73
2023/01/26 07:06:18;;;;;;;87.45;35.30;;;1.30;82.70;;;;;;5092873;28;20385;-72
2023/01/26 07:08:44;;;;;;;86.90;34.30;;;1.30;82.60;;;;;;5074174;28;20842;-73
2023/01/26 07:11:11;;;;;;;85.05;34.40;;;1.20;83.20;;;;;;5092432;28;20481;-73
2023/01/26 07:13:37;;;;;;;88.65;36.22;;;1.20;83.60;;;;;;5093533;28;20389;-72
2023/01/26 07:16:08;;;;;;;92.20;36.45;;;1.20;86.10;;;;;;5091331;28;20382;-73
2023/01/26 07:18:33;;;;;;;89.97;37.05;;;1.20;86.90;;;;;;5092116;28;20490;-71
2023/01/26 07:21:00;;;;;;;82.75;34.35;;;1.20;86.40;;;;;;5090863;28;20651;-71
2023/01/26 07:23:26;;;;;;;85.55;35.45;;;1.20;86.80;;;;;;5091580;28;20382;-72
2023/01/26 07:25:51;;;;;;;71.87;32.53;;;1.40;84.40;;;;;;5091425;28;20385;-73
2023/01/26 07:28:17;;;;;;;89.23;34.87;;;1.50;80.60;;;;;;5091344;28;20385;-71
2023/01/26 07:30:43;;;;;;;87.10;36.00;;;1.50;80.80;;;;;;5091703;28;20518;-72
2023/01/26 07:33:08;;;;;;;81.93;33.90;;;1.40;83.40;;;;;;5091224;28;20414;-72
2023/01/26 07:35:34;;;;;;;84.67;34.63;;;1.60;82.00;;;;;;5091503;28;20384;-72
2023/01/26 07:38:02;;;;;;;82.47;34.45;;;1.70;80.40;;;;;;5091174;28;20428;-72
2023/01/26 07:40:29;;;;;;;86.07;34.63;;;1.70;78.60;;;;;;5090459;28;21264;-74
2023/01/26 07:42:55;;;;;;;82.53;34.13;;;1.80;75.50;;;;;;5069135;28;20490;-73
2023/01/26 07:45:21;;;;;;;90.10;35.85;;;1.80;75.90;;;;;;5091205;28;20392;-74
2023/01/26 07:47:46;;;;;;;80.20;34.13;;;1.80;74.70;;;;;;5071705;28;20393;-73
2023/01/26 07:50:12;;;;;;;78.23;33.50;;;1.70;74.20;;;;;;5067268;28;20402;-75
2023/01/26 07:52:38;;;;;;;84.15;35.25;;;1.70;75.80;;;;;;5058369;28;20395;-75
2023/01/26 07:55:05;;;;;;;84.95;36.40;;;1.60;76.30;;;;;;5064951;28;20420;-76
2023/01/26 07:57:30;;;;;;;92.03;36.97;;;1.50;78.10;;;;;;5063348;28;20395;-73
2023/01/26 07:59:56;;;;;;;90.78;35.42;;;1.40;79.20;;;;;;5061428;28;20404;-74
2023/01/26 08:02:22;;;;;;;88.40;35.80;;;1.40;80.20;;;;;;5094279;28;20393;-75
2023/01/26 08:04:48;;;;;;;87.93;35.22;;;1.30;81.70;;;;;;5086228;28;20399;-75
2023/01/26 08:07:13;;;;;;;77.68;34.75;;;1.30;82.60;;;;;;5077521;28;20387;-73
2023/01/26 08:09:39;;;;;;;81.38;34.80;;;1.40;82.60;;;;;;5076039;28;20878;-72
2023/01/26 08:12:06;;;;;;;84.25;36.03;;;1.40;82.50;;;;;;5069831;28;20398;-79
2023/01/26 08:14:31;;;;;;;92.65;37.47;;;1.50;82.70;;;;;;5084066;28;20392;-79
2023/01/26 08:16:57;;;;;;;86.88;37.38;;;1.60;81.80;;;;;;5087508;28;20423;-78
2023/01/26 08:19:23;;;;;;;86.63;36.65;;;1.60;80.90;;;;;;5103246;28;20406;-77
2023/01/26 08:21:48;;;;;;;83.93;35.57;;;1.80;80.20;;;;;;5104525;28;20378;-77
2023/01/26 08:24:14;;;;;;;91.03;37.50;;;1.80;77.60;;;;;;5104880;28;20406;-74
2023/01/26 08:26:40;;;;;;;90.20;37.07;;;1.80;79.10;;;;;;5091028;28;20403;-77
2023/01/26 08:29:06;;;;;;;84.55;35.17;;;1.90;76.30;;;;;;5079518;28;20383;-73
2023/01/26 08:31:32;;;;;;;83.72;34.85;;;1.90;75.60;;;;;;5079022;28;20390;-73
2023/01/26 08:33:58;;;;;;;84.88;35.85;;;1.80;75.30;;;;;;5079462;28;20395;-75
2023/01/26 08:36:24;;;;;;;86.18;35.85;;;1.80;77.00;;;;;;5077030;28;20569;-74
2023/01/26 08:38:50;;;;;;;89.35;36.70;;;1.80;77.10;;;;;;5076065;28;20398;-73
2023/01/26 08:41:16;;;;;;;89.45;36.58;;;1.80;77.60;;;;;;5077612;28;20744;-76
2023/01/26 08:43:42;;;;;;;93.17;36.67;;;1.80;78.70;;;;;;5077554;28;20459;-76
2023/01/26 08:46:07;;;;;;;93.35;37.13;;;1.80;80.10;;;;;;5076656;28;20380;-74
2023/01/26 08:48:33;;;;;;;92.20;36.45;;;2.00;80.00;;;;;;5077384;28;20483;-73
2023/01/26 08:51:01;;;;;;;93.03;36.60;;;2.10;77.30;;;;;;5085966;28;20391;-74
2023/01/26 08:53:30;;;;;;;98.97;38.00;;;2.10;76.20;;;;;;5083495;28;20757;-74
2023/01/26 08:55:55;;;;;;;87.55;35.80;;;2.10;76.00;;;;;;5067552;28;20398;-73
2023/01/26 08:58:21;;;;;;;93.10;36.80;;;2.10;75.40;;;;;;5072928;28;20398;-75
2023/01/26 09:00:47;;;;;;;88.28;36.40;;;2.10;75.60;;;;;;5074305;28;20376;-75
2023/01/26 09:03:12;;;;;;;85.60;35.38;;;2.20;74.40;;;;;;5073663;28;20395;-72
2023/01/26 09:05:39;;;;;;;86.30;36.90;;;2.10;72.90;;;;;;5073713;28;20437;-76
2023/01/26 09:08:06;;;;;;;86.30;34.78;;;2.20;74.50;;;;;;5073932;28;20395;-72
2023/01/26 09:10:32;;;;;;;88.78;36.30;;;2.20;74.00;;;;;;5073724;28;20383;-75
2023/01/26 09:12:59;;;;;;;82.65;34.92;;;2.30;74.00;;;;;;5073731;28;20733;-73
2023/01/26 09:15:25;;;;;;;91.47;36.92;;;2.20;72.90;;;;;;5073726;28;20474;-73
2023/01/26 09:17:51;;;;;;;93.38;37.40;;;2.20;73.00;;;;;;5073712;28;20483;-76
2023/01/26 09:20:17;;;;;;;84.05;34.25;;;2.30;73.70;;;;;;5073616;28;20411;-75
2023/01/26 09:22:43;;;;;;;86.47;35.58;;;2.20;72.70;;;;;;5073411;28;20384;-75
2023/01/26 09:25:09;;;;;;;85.95;36.05;;;2.10;73.30;;;;;;5074492;28;20937;-75
2023/01/26 09:27:34;;;;;;;91.60;36.65;;;2.20;74.30;;;;;;5074038;28;20903;-74
2023/01/26 09:30:00;;;;;;;87.97;35.47;;;2.20;74.10;;;;;;5055291;28;20444;-74
2023/01/26 09:32:26;;;;;;;78.72;34.15;;;2.10;74.20;;;;;;5071983;28;20860;-73
2023/01/26 09:34:51;;;;;;;90.53;36.50;;;2.10;75.80;;;;;;5073477;28;20383;-74
2023/01/26 09:37:17;;;;;;;85.93;36.10;;;2.10;76.20;;;;;;5073672;28;20445;-73
2023/01/26 09:39:42;;;;;;;98.27;38.13;;;2.10;77.00;;;;;;5073693;28;20384;-73
2023/01/26 09:42:33;;;;;;;100.55;39.47;;;2.10;77.80;;;;;;5073987;28;20597;-75
2023/01/26 09:45:11;;;;;;;96.65;39.95;;;2.20;78.90;;;;;;5073514;28;20378;-73
2023/01/26 09:47:48;;;;;;;100.45;38.78;;;2.20;78.30;;;;;;5074194;28;20380;-75
2023/01/26 09:50:20;;;;;;;95.80;36.07;;;2.10;80.60;;;;;;5073458;28;20799;-75
2023/01/26 09:53:06;;;;;;;104.40;38.17;;;2.00;83.40;;;;;;5073492;28;20388;-75
2023/01/26 09:55:32;;;;;;;92.90;35.83;;;2.00;86.60;;;;;;5074030;28;20406;-74
2023/01/26 09:58:19;;;;;;;86.40;33.35;;;2.00;86.40;;;;;;5073750;28;20453;-75
2023/01/26 10:00:54;;;;;;;93.03;35.35;;;1.90;86.80;;;;;;5073187;28;20395;-76
2023/01/26 10:03:36;;;;;;;83.95;34.70;;;1.90;88.90;;;;;;5073195;28;20447;-73
2023/01/26 10:06:01;;;;;;;91.15;34.88;;;1.90;89.60;;;;;;5072722;28;20383;-76
2023/01/26 10:08:27;;;;;;;87.03;35.30;;;2.00;88.80;;;;;;5072719;28;20887;-76
2023/01/26 10:10:58;;;;;;;90.73;35.20;;;2.00;86.60;;;;;;5072574;28;20387;-75
2023/01/26 10:13:24;;;;;;;88.68;35.42;;;2.10;85.40;;;;;;5072693;28;20383;-74
2023/01/26 10:16:07;;;;;;;88.30;33.80;;;2.20;84.50;;;;;;5072439;28;20397;-73
2023/01/26 10:18:41;;;;;;;86.93;34.20;;;2.10;81.20;;;;;;5072793;28;20376;-73
2023/01/26 10:21:10;;;;;;;84.82;34.53;;;2.20;82.00;;;;;;5072235;28;20447;-74
2023/01/26 10:23:47;;;;;;;83.72;33.50;;;2.20;82.30;;;;;;5072354;28;20433;-74
2023/01/26 10:26:19;;;;;;;92.47;35.05;;;2.20;82.80;;;;;;5072286;28;20745;-74
2023/01/26 10:28:46;;;;;;;78.55;32.00;;;2.20;85.00;;;;;;5072281;28;20376;-73
2023/01/26 10:31:19;;;;;;;76.15;31.50;;;2.10;84.90;;;;;;5072336;28;20367;-74
2023/01/26 10:33:56;;;;;;;87.47;35.13;;;2.00;85.90;;;;;;5072495;28;20375;-72
2023/01/26 10:36:22;;;;;;;80.40;30.60;;;2.00;88.30;;;;;;5054394;28;20468;-76
2023/01/26 10:38:51;;;;;;;80.30;32.60;;;2.00;88.60;;;;;;5072486;28;20391;-74
2023/01/26 10:41:27;;;;;;;77.63;31.80;;;2.00;91.00;;;;;;5072109;28;20426;-73
2023/01/26 10:44:03;;;;;;;81.95;31.75;;;2.10;90.50;;;;;;5073252;28;20375;-75
2023/01/26 10:46:37;;;;;;;85.65;32.63;;;2.10;88.50;;;;;;5073810;28;20860;-74
2023/01/26 10:49:14;;;;;;;80.55;32.67;;;2.10;89.10;;;;;;5073177;28;20891;-74
2023/01/26 10:52:03;;;;;;;72.63;29.55;;;2.20;89.60;;;;;;5076521;28;20402;-75
2023/01/26 10:54:29;;;;;;;75.60;32.40;;;2.20;86.20;;;;;;5073616;28;20395;-74
2023/01/26 10:56:58;;;;;;;65.22;28.95;;;2.20;88.00;;;;;;5072724;28;20392;-73
2023/01/26 10:59:42;;;;;;;66.72;27.83;;;2.30;87.50;;;;;;5073462;28;20391;-74
2023/01/26 11:02:11;;;;;;;79.95;32.10;;;2.30;84.00;;;;;;5074214;28;20467;-73
2023/01/26 11:04:37;;;;;;;72.03;31.40;;;2.50;86.30;;;;;;5074903;28;20401;-73
2023/01/26 11:07:26;;;;;;;63.90;28.37;;;2.50;84.10;;;;;;5073240;28;20470;-75
2023/01/26 11:09:52;;;;;;;65.30;28.65;;;2.50;82.40;;;;;;5072066;28;20380;-73
2023/01/26 11:12:19;;;;;;;70.13;28.60;;;2.50;82.10;;;;;;5071826;28;20463;-74
2023/01/26 11:15:04;;;;;;;68.55;29.80;;;2.50;82.00;;;;;;5072814;28;20433;-76
2023/01/26 11:17:37;;;;;;;72.60;30.00;;;2.60;82.20;;;;;;5072835;28;20482;-74
2023/01/26 11:20:27;;;;;;;67.03;28.85;;;2.80;83.50;;;;;;5073557;28;20376;-76
2023/01/26 11:23:17;;;;;;;61.53;28.57;;;3.00;76.70;;;;;;5076527;28;20379;-75
2023/01/26 11:26:09;;;;;;;59.25;27.02;;;3.10;73.30;;;;;;5074847;28;20375;-75
2023/01/26 11:28:54;;;;;;;63.10;28.50;;;3.30;74.00;;;;;;5063757;28;20392;-76
2023/01/26 11:31:38;;;;;;;61.35;28.80;;;3.30;73.90;;;;;;5083736;28;20395;-74
2023/01/26 11:34:09;;;;;;;54.15;24.13;;;3.30;77.40;;;;;;5073486;28;20372;-74
2023/01/26 11:36:53;;;;;;;57.67;23.50;;;3.30;71.60;;;;;;5071746;28;20494;-76
2023/01/26 11:39:56;;;;;;;51.58;23.92;;;3.00;76.00;;;;;;5071890;28;20494;-76
2023/01/26 11:42:33;;;;;;;48.80;21.35;;;2.80;80.00;;;;;;5062370;28;20752;-73
2023/01/26 11:45:37;;;;;;;54.17;23.65;;;2.50;83.00;;;;;;5074552;28;20383;-76
2023/01/26 11:48:38;;;;;;;48.13;21.10;;;2.40;88.00;;;;;;5062470;28;20395;-76
2023/01/26 11:51:42;;;;;;;56.50;24.50;;;2.40;91.40;;;;;;5073714;28;20935;-75
2023/01/26 11:54:52;;;;;;;53.50;25.17;;;2.30;93.40;;;;;;5072499;28;20399;-75
2023/01/26 11:57:32;;;;;;;53.50;23.52;;;2.40;95.60;;;;;;5037588;28;20516;-76
2023/01/26 12:00:04;;;;;;;47.25;22.00;;;2.40;95.90;;;;;;5055835;28;20784;-74
2023/01/26 12:02:34;;;;;;;52.55;21.90;;;2.50;97.70;;;;;;5076237;28;20463;-75
2023/01/26 12:05:17;;;;;;;45.25;21.77;;;2.50;98.40;;;;;;5073717;28;20395;-74
2023/01/26 12:07:54;;;;;;;48.25;21.20;;;2.60;97.20;;;;;;5057300;28;20419;-75
2023/01/26 12:10:26;;;;;;;46.25;21.77;;;2.70;98.60;;;;;;5075369;28;20372;-73
2023/01/26 12:13:15;;;;;;;47.97;21.83;;;2.80;96.40;;;;;;5057829;28;20402;-75
2023/01/26 12:15:46;;;;;;;45.38;21.48;;;2.80;95.40;;;;;;5076113;28;20464;-75
2023/01/26 12:18:21;;;;;;;47.05;21.98;;;2.90;94.40;;;;;;5054076;28;20760;-76
2023/01/26 12:20:55;;;;;;;43.35;23.17;;;3.00;93.40;;;;;;5070738;28;20469;-71
2023/01/26 12:23:49;;;;;;;38.60;20.30;;;3.10;92.30;;;;;;5070936;28;20494;-73
2023/01/26 12:26:17;;;;;;;46.25;21.77;;;3.20;90.10;;;;;;5071061;28;20407;-73
2023/01/26 12:29:08;;;;;;;39.85;19.45;;;3.20;87.40;;;;;;5070671;28;20860;-75
2023/01/26 12:31:57;;;;;;;40.22;21.20;;;3.20;85.00;;;;;;5052706;28;20388;-75
2023/01/26 12:34:27;;;;;;;48.88;23.77;;;3.10;88.10;;;;;;5058862;28;20814;-75
2023/01/26 12:36:52;;;;;;;40.03;21.88;;;3.10;90.30;;;;;;5070799;28;20807;-76
2023/01/26 12:39:38;;;;;;;42.30;21.67;;;3.00;89.00;;;;;;5070950;28;20467;-74
2023/01/26 12:42:12;;;;;;;40.75;21.15;;;2.90;90.70;;;;;;5070038;28;20783;-73
2023/01/26 12:44:49;;;;;;;36.35;19.77;;;2.80;92.70;;;;;;5070494;28;20387;-73
2023/01/26 12:47:27;;;;;;;33.28;17.10;;;2.80;94.10;;;;;;5052680;28;20395;-73
2023/01/26 12:50:12;;;;;;;38.78;20.23;;;2.80;95.70;;;;;;5070276;28;20446;-73
2023/01/26 12:52:45;;;;;;;42.38;21.90;;;2.80;98.00;;;;;;5070405;28;20757;-74
2023/01/26 12:55:35;;;;;;;40.50;21.50;;;2.90;99.90;;;;;;5052539;28;20396;-74
2023/01/26 12:58:13;;;;;;;39.50;19.90;;;2.80;97.90;;;;;;5071116;28;20399;-76
2023/01/26 13:00:39;;;;;;;40.60;19.80;;;2.70;98.30;;;;;;5070455;28;20390;-74
2023/01/26 13:03:22;;;;;;;46.63;22.48;;;2.60;99.90;;;;;;5070598;28;20411;-76
2023/01/26 13:05:55;;;;;;;43.58;22.10;;;2.50;99.90;;;;;;5071097;28;20376;-74
2023/01/26 13:08:30;;;;;;;49.67;23.60;;;2.60;99.90;;;;;;5074727;28;20387;-74
2023/01/26 13:10:57;;;;;;;56.58;27.25;;;2.70;99.90;;;;;;5074474;28;20386;-73
2023/01/26 13:13:29;;;;;;;60.40;27.13;;;2.80;99.90;;;;;;5075805;28;20391;-76
2023/01/26 13:16:13;;;;;;;63.72;28.92;;;2.70;99.90;;;;;;5076427;28;20384;-74
2023/01/26 13:18:50;;;;;;;61.00;29.40;;;2.70;99.90;;;;;;5075642;28;20441;-72
2023/01/26 13:21:34;;;;;;;61.13;29.20;;;2.70;99.90;;;;;;5074886;28;20379;-74
2023/01/26 13:24:00;;;;;;;67.72;31.80;;;2.70;99.90;;;;;;5076050;28;20382;-75
2023/01/26 13:26:31;;;;;;;68.70;33.28;;;2.80;99.90;;;;;;5077040;28;20375;-74
2023/01/26 13:29:30;;;;;;;58.03;28.90;;;2.90;99.90;;;;;;5076064;28;20408;-74
2023/01/26 13:32:13;;;;;;;52.85;26.02;;;2.90;99.90;;;;;;5076312;28;20379;-74
2023/01/26 13:34:43;;;;;;;53.97;23.75;;;2.90;99.90;;;;;;5077658;28;20410;-77